createdAt,value
2023-05-07T00:00:20.119Z,33.03
2023-05-07T00:02:47.690Z,34.63
2023-05-07T00:05:15.700Z,39.17
2023-05-07T00:07:42.454Z,34.63
2023-05-07T00:10:09.745Z,34.53
2023-05-07T00:12:36.564Z,39.58
2023-05-07T00:15:04.394Z,37.25
2023-05-07T00:17:31.784Z,35.90
2023-05-07T00:19:58.309Z,35.63
2023-05-07T00:22:24.779Z,34.00
2023-05-07T00:24:51.251Z,39.00
2023-05-07T00:27:17.702Z,39.25
2023-05-07T00:29:44.182Z,37.60
2023-05-07T00:32:10.711Z,36.97
2023-05-07T00:34:37.221Z,35.60
2023-05-07T00:37:05.967Z,36.17
2023-05-07T00:39:33.122Z,36.97
2023-05-07T00:41:59.709Z,35.13
2023-05-07T00:44:26.188Z,40.10
2023-05-07T00:46:53.026Z,38.80
2023-05-07T00:49:20.062Z,36.78
2023-05-07T00:51:47.244Z,37.28
2023-05-07T00:54:14.452Z,40.50
2023-05-07T00:56:41.090Z,38.70
2023-05-07T00:59:07.659Z,39.05
2023-05-07T01:01:34.394Z,36.28
2023-05-07T01:04:01.036Z,37.75
2023-05-07T01:06:29.974Z,32.00
2023-05-07T01:08:58.447Z,34.42
2023-05-07T01:11:26.559Z,35.30
2023-05-07T01:13:54.057Z,35.03
2023-05-07T01:16:21.103Z,34.53
2023-05-07T01:18:49.986Z,34.55
2023-05-07T01:21:18.515Z,39.20
2023-05-07T01:23:47.006Z,32.70
2023-05-07T01:26:13.676Z,32.80
2023-05-07T01:28:40.440Z,36.67
2023-05-07T01:31:09.060Z,37.17
2023-05-07T01:33:37.845Z,33.50
2023-05-07T01:36:07.548Z,37.85
2023-05-07T01:38:34.856Z,33.50
2023-05-07T01:41:01.335Z,35.50
2023-05-07T01:43:27.895Z,39.17
2023-05-07T01:46:01.114Z,41.35
2023-05-07T01:48:27.676Z,40.45
2023-05-07T01:50:54.651Z,37.80
2023-05-07T01:53:21.094Z,38.30
2023-05-07T01:55:47.626Z,37.45
2023-05-07T01:58:14.079Z,37.88
2023-05-07T02:00:41.794Z,38.40
2023-05-07T02:03:08.373Z,38.83
2023-05-07T02:05:34.934Z,36.67
2023-05-07T02:08:01.461Z,38.05
2023-05-07T02:10:27.962Z,37.33
2023-05-07T02:12:54.466Z,39.60
2023-05-07T02:15:20.979Z,39.50
2023-05-07T02:18:01.720Z,39.95
2023-05-07T02:20:28.470Z,40.72
2023-05-07T02:22:54.988Z,36.65
2023-05-07T02:25:21.539Z,41.10
2023-05-07T02:27:48.154Z,39.40
2023-05-07T02:30:15.626Z,37.38
2023-05-07T02:32:42.151Z,37.15
2023-05-07T02:35:09.249Z,37.40
2023-05-07T02:37:36.050Z,40.13
2023-05-07T02:40:05.082Z,39.92
2023-05-07T02:42:31.808Z,37.42
2023-05-07T02:44:58.250Z,36.38
2023-05-07T02:47:24.847Z,39.13
2023-05-07T02:49:51.289Z,37.80
2023-05-07T02:52:17.723Z,37.25
2023-05-07T02:54:44.254Z,34.97
2023-05-07T02:57:10.719Z,38.50
2023-05-07T02:59:37.528Z,36.95
2023-05-07T03:02:04.154Z,37.40
2023-05-07T03:04:30.716Z,35.47
2023-05-07T03:06:57.366Z,37.95
2023-05-07T03:09:23.848Z,38.72
2023-05-07T03:11:50.413Z,36.13
2023-05-07T03:14:16.869Z,39.03
2023-05-07T03:16:43.321Z,36.65
2023-05-07T03:19:09.773Z,35.97
2023-05-07T03:21:36.282Z,35.88
2023-05-07T03:24:02.755Z,37.85
2023-05-07T03:26:29.176Z,36.20
2023-05-07T03:28:56.471Z,35.00
2023-05-07T03:31:23.028Z,37.90
2023-05-07T03:33:53.558Z,40.15
2023-05-07T03:36:20.835Z,34.53
2023-05-07T03:38:47.458Z,34.88
2023-05-07T03:41:14.134Z,36.45
2023-05-07T03:43:40.936Z,40.45
2023-05-07T03:46:07.519Z,34.65
2023-05-07T03:48:34.108Z,36.47
2023-05-07T03:51:00.740Z,38.70
2023-05-07T03:53:27.227Z,35.30
2023-05-07T03:55:53.681Z,36.95
2023-05-07T03:58:20.200Z,37.13
2023-05-07T04:00:50.174Z,35.08
2023-05-07T04:03:16.850Z,35.20
2023-05-07T04:05:43.333Z,36.28
2023-05-07T04:08:09.876Z,33.00
2023-05-07T04:10:36.297Z,37.15
2023-05-07T04:13:02.793Z,34.38
2023-05-07T04:15:29.438Z,34.03
2023-05-07T04:17:56.021Z,33.63
2023-05-07T04:20:22.469Z,34.58
2023-05-07T04:22:48.971Z,36.45
2023-05-07T04:25:17.345Z,35.45
2023-05-07T04:27:43.829Z,35.00
2023-05-07T04:30:10.984Z,32.72
2023-05-07T04:32:38.360Z,35.45
2023-05-07T04:35:05.401Z,38.42
2023-05-07T04:37:33.595Z,34.25
2023-05-07T04:40:00.038Z,33.42
2023-05-07T04:42:26.579Z,35.38
2023-05-07T04:44:54.586Z,33.10
2023-05-07T04:47:21.137Z,38.40
2023-05-07T04:49:47.634Z,35.55
2023-05-07T04:52:14.160Z,35.63
2023-05-07T04:54:40.648Z,33.45
2023-05-07T04:57:07.212Z,34.90
2023-05-07T04:59:33.978Z,32.58
2023-05-07T05:02:00.635Z,32.35
2023-05-07T05:04:27.172Z,33.75
2023-05-07T05:06:53.905Z,33.35
2023-05-07T05:09:20.415Z,35.58
2023-05-07T05:11:46.989Z,30.02
2023-05-07T05:14:13.564Z,29.02
2023-05-07T05:16:40.470Z,30.00
2023-05-07T05:19:07.041Z,29.85
2023-05-07T05:21:33.598Z,28.45
2023-05-07T05:24:00.043Z,30.08
2023-05-07T05:26:26.745Z,27.95
2023-05-07T05:28:53.189Z,26.77
2023-05-07T05:31:19.768Z,28.90
2023-05-07T05:33:46.282Z,30.52
2023-05-07T05:36:14.076Z,32.15
2023-05-07T05:38:41.414Z,27.63
2023-05-07T05:41:07.940Z,28.45
2023-05-07T05:43:34.489Z,29.25
2023-05-07T05:46:01.720Z,31.20
2023-05-07T05:48:30.165Z,31.42
2023-05-07T05:50:56.658Z,27.73
2023-05-07T05:53:23.128Z,28.98
2023-05-07T05:55:50.965Z,26.27
2023-05-07T05:58:17.531Z,27.55
2023-05-07T06:00:45.874Z,25.95
2023-05-07T06:03:14.232Z,28.45
2023-05-07T06:05:41.021Z,27.40
2023-05-07T06:08:07.522Z,32.53
2023-05-07T06:10:34.116Z,32.13
2023-05-07T06:13:00.614Z,24.80
2023-05-07T06:15:27.130Z,26.45
2023-05-07T06:17:53.644Z,24.38
2023-05-07T06:20:20.177Z,22.10
2023-05-07T06:22:46.699Z,24.77
2023-05-07T06:25:13.233Z,21.88
2023-05-07T06:27:40.719Z,23.42
2023-05-07T06:30:08.679Z,19.55
2023-05-07T06:32:35.291Z,22.00
2023-05-07T06:35:01.826Z,21.63
2023-05-07T06:37:28.308Z,20.50
2023-05-07T06:39:54.872Z,23.02
2023-05-07T06:42:21.401Z,19.02
2023-05-07T06:44:47.900Z,21.02
2023-05-07T06:47:16.102Z,21.63
2023-05-07T06:49:43.061Z,20.70
2023-05-07T06:52:09.573Z,21.92
2023-05-07T06:54:36.073Z,21.30
2023-05-07T06:57:02.542Z,23.33
2023-05-07T06:59:29.022Z,19.17
2023-05-07T07:01:55.581Z,23.23
2023-05-07T07:04:24.067Z,18.60
2023-05-07T07:06:52.674Z,19.52
2023-05-07T07:09:19.202Z,22.77
2023-05-07T07:11:45.702Z,20.70
2023-05-07T07:14:12.191Z,21.85
2023-05-07T07:16:38.861Z,22.70
2023-05-07T07:19:05.416Z,22.48
2023-05-07T07:21:32.066Z,25.35
2023-05-07T07:23:58.706Z,23.98
2023-05-07T07:26:25.520Z,24.23
2023-05-07T07:28:51.975Z,23.17
2023-05-07T07:31:18.465Z,23.92
2023-05-07T07:33:44.995Z,21.70
2023-05-07T07:36:11.516Z,23.77
2023-05-07T07:38:38.038Z,22.83
2023-05-07T07:41:05.718Z,21.98
2023-05-07T07:43:32.255Z,23.25
2023-05-07T07:45:58.688Z,31.27
2023-05-07T07:48:25.334Z,22.80
2023-05-07T07:50:54.634Z,27.00
2023-05-07T07:53:21.335Z,25.38
2023-05-07T07:55:47.863Z,27.17
2023-05-07T07:58:14.527Z,25.67
2023-05-07T08:00:41.189Z,28.38
2023-05-07T08:03:10.976Z,29.30
2023-05-07T08:05:39.317Z,24.42
2023-05-07T08:08:06.811Z,26.08
2023-05-07T08:10:35.684Z,26.15
2023-05-07T08:13:04.865Z,24.58
2023-05-07T08:15:31.979Z,24.05
2023-05-07T08:18:01.115Z,23.13
2023-05-07T08:20:27.950Z,27.38
2023-05-07T08:22:54.521Z,28.23
2023-05-07T08:25:21.020Z,25.05
2023-05-07T08:27:47.486Z,27.05
2023-05-07T08:30:14.570Z,28.33
2023-05-07T08:32:41.044Z,27.33
2023-05-07T08:35:07.957Z,26.48
2023-05-07T08:37:34.433Z,23.40
2023-05-07T08:40:01.207Z,23.30
2023-05-07T08:42:30.370Z,26.42
2023-05-07T08:45:00.228Z,26.80
2023-05-07T08:47:35.016Z,28.38
2023-05-07T08:50:02.998Z,25.38
2023-05-07T08:52:29.558Z,26.60
2023-05-07T08:54:56.095Z,24.88
2023-05-07T08:57:24.442Z,25.17
2023-05-07T08:59:51.043Z,23.58
2023-05-07T09:02:19.128Z,26.02
2023-05-07T09:04:45.804Z,24.15
2023-05-07T09:07:12.348Z,23.17
2023-05-07T09:09:38.812Z,26.45
2023-05-07T09:12:05.519Z,24.30
2023-05-07T09:14:32.044Z,26.63
2023-05-07T09:16:58.583Z,23.40
2023-05-07T09:19:26.100Z,24.48
2023-05-07T09:22:03.581Z,25.65
2023-05-07T09:24:35.131Z,24.75
2023-05-07T09:27:03.256Z,24.80
2023-05-07T09:29:31.148Z,25.10
2023-05-07T09:31:57.683Z,21.67
2023-05-07T09:34:24.229Z,23.17
2023-05-07T09:36:50.746Z,22.42
2023-05-07T09:39:17.473Z,21.85
2023-05-07T09:41:45.566Z,23.92
2023-05-07T09:44:12.207Z,21.13
2023-05-07T09:46:42.750Z,22.05
2023-05-07T09:49:15.116Z,23.08
2023-05-07T09:51:48.541Z,21.35
2023-05-07T09:54:15.862Z,20.20
2023-05-07T09:56:44.344Z,18.77
2023-05-07T09:59:16.788Z,21.55
2023-05-07T10:01:45.363Z,21.85
2023-05-07T10:04:13.176Z,21.42
2023-05-07T10:06:40.044Z,19.02
2023-05-07T10:09:06.908Z,20.90
2023-05-07T10:11:36.379Z,20.02
2023-05-07T10:14:05.064Z,19.02
2023-05-07T10:16:33.864Z,17.83
2023-05-07T10:19:00.679Z,18.13
2023-05-07T10:21:30.748Z,17.55
2023-05-07T10:24:07.010Z,21.38
2023-05-07T10:26:35.208Z,17.77
2023-05-07T10:29:50.767Z,18.92
2023-05-07T10:32:17.154Z,17.27
2023-05-07T10:34:46.638Z,16.15
2023-05-07T10:37:13.940Z,18.75
2023-05-07T10:39:41.596Z,17.27
2023-05-07T10:42:09.693Z,16.90
2023-05-07T10:44:38.399Z,16.73
2023-05-07T10:47:12.730Z,19.90
2023-05-07T10:49:42.382Z,18.37
2023-05-07T10:52:25.537Z,18.02
2023-05-07T10:55:20.888Z,17.63
2023-05-07T10:57:47.428Z,16.98
2023-05-07T11:00:18.418Z,17.42
2023-05-07T11:03:01.285Z,15.10
2023-05-07T11:05:36.639Z,15.75
2023-05-07T11:08:05.726Z,13.90
2023-05-07T11:10:51.003Z,16.83
2023-05-07T11:13:18.611Z,18.83
2023-05-07T11:15:49.403Z,17.48
2023-05-07T11:18:17.592Z,15.55
2023-05-07T11:20:51.566Z,16.45
2023-05-07T11:23:33.093Z,17.98
2023-05-07T11:26:07.581Z,16.85
2023-05-07T11:28:42.614Z,16.83
2023-05-07T11:33:36.900Z,16.23
2023-05-07T11:36:05.296Z,15.13
2023-05-07T11:38:35.610Z,13.82
2023-05-07T11:41:02.720Z,14.73
2023-05-07T11:43:29.474Z,15.05
2023-05-07T11:46:05.514Z,14.68
2023-05-07T11:48:32.990Z,15.20
2023-05-07T11:50:59.510Z,15.95
2023-05-07T11:53:27.214Z,15.77
2023-05-07T11:55:54.549Z,17.17
2023-05-07T11:58:29.360Z,17.63
2023-05-07T12:00:55.909Z,15.57
2023-05-07T12:03:22.518Z,18.30
2023-05-07T12:05:49.541Z,17.13
2023-05-07T12:08:20.050Z,15.07
2023-05-07T12:10:51.079Z,16.65
2023-05-07T12:13:27.272Z,16.48
2023-05-07T12:15:55.051Z,14.88
2023-05-07T12:18:23.153Z,15.55
2023-05-07T12:20:51.313Z,16.08
2023-05-07T12:23:18.682Z,14.98
2023-05-07T12:25:48.087Z,16.98
2023-05-07T12:28:18.954Z,15.98
2023-05-07T12:30:49.249Z,15.38
2023-05-07T12:33:22.377Z,17.40
2023-05-07T12:35:49.068Z,14.32
2023-05-07T12:38:18.342Z,15.00
2023-05-07T12:40:54.783Z,14.23
2023-05-07T12:43:25.323Z,14.98
2023-05-07T12:45:54.414Z,15.65
2023-05-07T12:48:21.979Z,14.07
2023-05-07T12:50:52.476Z,16.77
2023-05-07T12:53:21.939Z,20.85
2023-05-07T12:55:50.961Z,13.55
2023-05-07T12:58:19.392Z,15.10
2023-05-07T13:00:48.266Z,17.60
2023-05-07T13:03:32.333Z,16.90
2023-05-07T13:06:01.565Z,14.73
2023-05-07T13:08:41.117Z,16.42
2023-05-07T13:11:08.732Z,14.93
2023-05-07T13:13:37.031Z,17.00
2023-05-07T13:16:04.866Z,15.00
2023-05-07T13:18:32.810Z,17.58
2023-05-07T13:21:00.147Z,15.27
2023-05-07T13:23:27.056Z,17.95
2023-05-07T13:25:54.956Z,15.27
2023-05-07T13:28:21.413Z,16.38
2023-05-07T13:30:48.042Z,17.88
2023-05-07T13:33:14.766Z,20.63
2023-05-07T13:35:41.227Z,16.10
2023-05-07T13:38:07.774Z,19.70
2023-05-07T13:40:34.338Z,17.63
2023-05-07T13:43:03.162Z,18.98
2023-05-07T13:45:30.838Z,16.65
2023-05-07T13:47:58.058Z,17.55
2023-05-07T13:50:25.562Z,18.48
2023-05-07T13:52:52.114Z,20.77
2023-05-07T13:55:19.560Z,16.38
2023-05-07T13:57:46.370Z,18.30
2023-05-07T14:00:14.459Z,18.75
2023-05-07T14:02:41.792Z,18.88
2023-05-07T14:05:08.857Z,22.10
2023-05-07T14:07:35.567Z,17.33
2023-05-07T14:10:02.050Z,16.65
2023-05-07T14:12:28.493Z,19.38
2023-05-07T14:14:54.995Z,18.80
2023-05-07T14:17:21.628Z,18.63
2023-05-07T14:19:48.184Z,17.10
2023-05-07T14:22:16.342Z,19.80
2023-05-07T14:24:42.824Z,18.23
2023-05-07T14:27:09.301Z,16.48
2023-05-07T14:29:36.988Z,18.40
2023-05-07T14:32:04.184Z,19.70
2023-05-07T14:34:32.490Z,17.30
2023-05-07T14:37:00.585Z,15.68
2023-05-07T14:39:27.280Z,15.63
2023-05-07T14:41:55.613Z,17.90
2023-05-07T14:44:22.244Z,17.33
2023-05-07T14:46:49.383Z,16.88
2023-05-07T14:49:18.159Z,15.85
2023-05-07T14:51:46.427Z,16.95
2023-05-07T14:54:14.059Z,16.63
2023-05-07T14:56:41.340Z,15.20
2023-05-07T14:59:08.510Z,14.32
2023-05-07T15:01:38.410Z,16.38
2023-05-07T15:04:05.898Z,12.23
2023-05-07T15:06:33.339Z,18.08
2023-05-07T15:08:59.822Z,16.10
2023-05-07T15:11:26.474Z,13.98
2023-05-07T15:13:53.021Z,16.92
2023-05-07T15:16:19.666Z,15.05
2023-05-07T15:18:46.177Z,17.02
2023-05-07T15:21:13.212Z,16.77
2023-05-07T15:23:39.697Z,16.23
2023-05-07T15:26:06.472Z,20.55
2023-05-07T15:28:33.729Z,16.25
2023-05-07T15:31:00.302Z,17.15
2023-05-07T15:33:26.804Z,18.73
2023-05-07T15:35:53.298Z,16.65
2023-05-07T15:38:19.791Z,18.58
2023-05-07T15:40:46.261Z,19.52
2023-05-07T15:43:12.815Z,16.55
2023-05-07T15:45:41.409Z,19.63
2023-05-07T15:48:09.093Z,15.45
2023-05-07T15:50:36.269Z,18.20
2023-05-07T15:53:04.089Z,18.55
2023-05-07T15:55:32.057Z,17.75
2023-05-07T15:57:58.942Z,19.45
2023-05-07T16:00:28.605Z,21.10
2023-05-07T16:02:55.489Z,19.58
2023-05-07T16:05:22.280Z,17.83
2023-05-07T16:07:48.953Z,18.17
2023-05-07T16:10:15.678Z,19.55
2023-05-07T16:12:42.345Z,19.85
2023-05-07T16:15:09.190Z,19.08
2023-05-07T16:17:35.786Z,20.33
2023-05-07T16:20:06.318Z,19.58
2023-05-07T16:22:33.124Z,19.98
2023-05-07T16:24:59.817Z,18.60
2023-05-07T16:27:26.349Z,18.35
2023-05-07T16:29:52.813Z,17.45
2023-05-07T16:32:19.667Z,17.33
2023-05-07T16:34:46.967Z,16.50
2023-05-07T16:37:14.347Z,18.42
2023-05-07T16:39:40.895Z,17.67
2023-05-07T16:42:07.393Z,18.55
2023-05-07T16:44:33.932Z,18.13
2023-05-07T16:47:00.735Z,19.17
2023-05-07T16:49:27.167Z,17.52
2023-05-07T16:51:53.844Z,16.65
2023-05-07T16:54:20.350Z,16.45
2023-05-07T16:56:47.624Z,16.65
2023-05-07T16:59:14.167Z,19.13
2023-05-07T17:01:42.673Z,18.33
2023-05-07T17:04:09.388Z,20.35
2023-05-07T17:06:36.404Z,14.13
2023-05-07T17:09:03.395Z,15.25
2023-05-07T17:11:31.612Z,12.20
2023-05-07T17:13:58.124Z,14.40
2023-05-07T17:16:24.720Z,14.25
2023-05-07T17:18:51.473Z,15.80
2023-05-07T17:21:17.920Z,12.95
2023-05-07T17:23:44.374Z,10.93
2023-05-07T17:26:14.503Z,12.20
2023-05-07T17:28:41.100Z,10.20
2023-05-07T17:31:07.753Z,11.85
2023-05-07T17:33:34.650Z,12.30
2023-05-07T17:36:03.093Z,16.17
2023-05-07T17:38:30.676Z,14.23
2023-05-07T17:40:58.670Z,9.82
2023-05-07T17:43:25.280Z,13.73
2023-05-07T17:45:51.869Z,10.93
2023-05-07T17:48:18.682Z,8.40
2023-05-07T17:50:45.514Z,9.15
2023-05-07T17:53:12.295Z,9.32
2023-05-07T17:55:45.243Z,10.50
2023-05-07T17:58:12.378Z,11.20
2023-05-07T18:00:39.015Z,10.40
2023-05-07T18:03:05.903Z,9.82
2023-05-07T18:05:35.985Z,9.75
2023-05-07T18:08:02.467Z,9.98
2023-05-07T18:10:29.079Z,10.90
2023-05-07T18:12:55.699Z,8.90
2023-05-07T18:15:22.209Z,8.55
2023-05-07T18:17:48.934Z,10.32
2023-05-07T18:20:15.610Z,10.25
2023-05-07T18:22:42.076Z,10.57
2023-05-07T18:25:08.730Z,9.10
2023-05-07T18:27:35.487Z,11.88
2023-05-07T18:30:02.425Z,9.00
2023-05-07T18:32:28.942Z,8.50
2023-05-07T18:34:55.471Z,10.85
2023-05-07T18:37:23.994Z,10.07
2023-05-07T18:39:51.199Z,11.10
2023-05-07T18:42:17.725Z,14.65
2023-05-07T18:44:44.605Z,9.00
2023-05-07T18:47:11.226Z,10.75
2023-05-07T18:49:37.830Z,12.45
2023-05-07T18:52:04.563Z,12.68
2023-05-07T18:54:31.089Z,10.00
2023-05-07T18:56:57.609Z,12.43
2023-05-07T18:59:24.157Z,9.43
2023-05-07T19:01:50.742Z,10.88
2023-05-07T19:04:18.093Z,9.73
2023-05-07T19:06:44.753Z,8.98
2023-05-07T19:09:11.864Z,20.02
2023-05-07T19:11:38.359Z,10.57
2023-05-07T19:14:05.392Z,11.38
2023-05-07T19:16:32.124Z,9.63
2023-05-07T19:18:58.744Z,9.43
2023-05-07T19:21:25.484Z,11.57
2023-05-07T19:23:53.743Z,15.00
2023-05-07T19:26:21.230Z,10.85
2023-05-07T19:28:52.015Z,10.00
2023-05-07T19:31:28.244Z,9.70
2023-05-07T19:33:54.837Z,7.80
2023-05-07T19:36:21.318Z,11.18
2023-05-07T19:38:49.888Z,10.43
2023-05-07T19:41:16.405Z,9.20
2023-05-07T19:43:42.900Z,10.80
2023-05-07T19:46:09.419Z,10.05
2023-05-07T19:48:35.926Z,12.80
2023-05-07T19:51:03.027Z,11.38
2023-05-07T19:53:30.325Z,12.60
2023-05-07T19:56:03.222Z,10.43
2023-05-07T19:58:30.043Z,8.75
2023-05-07T20:00:56.472Z,12.38
2023-05-07T20:03:23.051Z,12.57
2023-05-07T20:05:50.475Z,10.95
2023-05-07T20:08:16.962Z,13.63
2023-05-07T20:10:43.408Z,13.13
2023-05-07T20:13:11.299Z,13.15
2023-05-07T20:15:39.448Z,13.20
2023-05-07T20:18:06.029Z,15.55
2023-05-07T20:20:32.688Z,12.50
2023-05-07T20:22:59.261Z,15.15
2023-05-07T20:25:25.800Z,18.10
2023-05-07T20:27:52.299Z,16.30
2023-05-07T20:30:23.602Z,16.50
2023-05-07T20:32:50.782Z,19.05
2023-05-07T20:35:17.318Z,23.30
2023-05-07T20:37:43.841Z,27.65
2023-05-07T20:40:10.860Z,21.77
2023-05-07T20:42:37.597Z,21.70
2023-05-07T20:45:04.458Z,23.00
2023-05-07T20:47:32.980Z,22.95
2023-05-07T20:49:59.532Z,22.70
2023-05-07T20:52:25.981Z,23.20
2023-05-07T20:54:52.562Z,26.70
2023-05-07T20:57:19.794Z,24.15
2023-05-07T20:59:46.375Z,26.10
2023-05-07T21:02:13.065Z,25.50
2023-05-07T21:04:39.653Z,24.70
2023-05-07T21:07:07.519Z,25.80
2023-05-07T21:09:34.008Z,22.08
2023-05-07T21:12:00.542Z,25.58
2023-05-07T21:14:27.037Z,24.38
2023-05-07T21:16:53.523Z,23.17
2023-05-07T21:19:20.172Z,25.45
2023-05-07T21:21:46.698Z,25.70
2023-05-07T21:24:13.193Z,22.25
2023-05-07T21:26:39.695Z,26.30
2023-05-07T21:29:06.171Z,24.60
2023-05-07T21:31:32.858Z,25.10
2023-05-07T21:33:59.356Z,26.17
2023-05-07T21:36:25.829Z,25.27
2023-05-07T21:38:52.332Z,26.08
2023-05-07T21:41:20.410Z,25.02
2023-05-07T21:43:46.879Z,27.42
2023-05-07T21:46:13.493Z,24.85
2023-05-07T21:48:40.096Z,26.52
2023-05-07T21:51:07.893Z,27.83
2023-05-07T21:53:35.213Z,23.95
2023-05-07T21:56:02.920Z,28.13
2023-05-07T21:58:30.858Z,27.13
2023-05-07T22:00:58.201Z,27.25
2023-05-07T22:03:24.790Z,26.42
2023-05-07T22:05:51.528Z,26.60
2023-05-07T22:08:18.359Z,27.80
2023-05-07T22:10:44.877Z,26.83
2023-05-07T22:13:11.504Z,27.75
2023-05-07T22:15:49.050Z,27.83
2023-05-07T22:18:23.000Z,26.83
2023-05-07T22:20:51.734Z,25.35
2023-05-07T22:23:18.246Z,26.95
2023-05-07T22:25:44.698Z,27.77
2023-05-07T22:28:11.214Z,25.95
2023-05-07T22:30:37.872Z,26.83
2023-05-07T22:33:04.382Z,26.08
2023-05-07T22:35:31.159Z,28.50
2023-05-07T22:37:58.393Z,27.15
2023-05-07T22:40:24.887Z,26.98
2023-05-07T22:42:51.424Z,24.83
2023-05-07T22:45:17.924Z,31.48
2023-05-07T22:47:44.472Z,28.02
2023-05-07T22:50:12.658Z,26.63
2023-05-07T22:52:39.391Z,29.30
2023-05-07T22:55:06.717Z,27.55
2023-05-07T22:57:33.208Z,27.60
2023-05-07T22:59:59.704Z,29.00
2023-05-07T23:02:29.029Z,28.58
2023-05-07T23:04:58.744Z,29.42
2023-05-07T23:07:25.206Z,29.08
2023-05-07T23:09:51.766Z,28.83
2023-05-07T23:12:18.417Z,26.58
2023-05-07T23:14:44.933Z,27.38
2023-05-07T23:17:11.428Z,26.65
2023-05-07T23:19:38.168Z,27.20
2023-05-07T23:22:04.792Z,26.10
2023-05-07T23:24:31.245Z,26.80
2023-05-07T23:26:57.792Z,26.88
2023-05-07T23:29:24.237Z,27.13
2023-05-07T23:31:50.968Z,27.08
2023-05-07T23:34:23.639Z,29.42
2023-05-07T23:36:51.109Z,29.45
2023-05-07T23:39:18.649Z,30.73
2023-05-07T23:41:45.288Z,27.25
2023-05-07T23:44:11.860Z,28.77
2023-05-07T23:46:38.465Z,31.77
2023-05-07T23:49:05.059Z,28.30
2023-05-07T23:51:31.503Z,30.52
2023-05-07T23:53:58.084Z,28.92
2023-05-07T23:56:24.547Z,31.20
2023-05-07T23:58:51.088Z,33.47
